Time;durP1;ratioP1;P1;durP2;ratioP2;P2;SDS_P1;SDS_P2;PMS_P1;PMS_P2;Temp;Humidity;BMP_temperature;BMP_pressure;BME280_temperature;BME280_humidity;BME280_pressure;Samples;Min_cycle;Max_cycle;Signal;HPM_P1;HPM_P2
2021/04/21 00:00:09;;;;;;;19.70;11.10;;;;;;;7.36;84.02;96404.56;4920160;28;20973;-72
2021/04/21 00:02:36;;;;;;;21.90;11.50;;;;;;;7.33;84.34;96391.75;4923904;29;20999;-73
2021/04/21 00:05:05;;;;;;;21.83;11.57;;;;;;;7.30;84.34;96392.75;4925663;28;20986;-72
2021/04/21 00:07:34;;;;;;;23.33;11.43;;;;;;;7.24;84.74;96389.66;4920622;29;20927;-73
2021/04/21 00:10:04;;;;;;;20.80;11.90;;;;;;;7.22;85.23;96397.47;4926091;28;20895;-73
2021/04/21 00:12:32;;;;;;;17.57;11.50;;;;;;;7.20;84.75;96388.16;4925673;29;20447;-73
2021/04/21 00:14:59;;;;;;;21.13;11.27;;;;;;;7.22;84.67;96397.47;4928931;28;20886;-73
2021/04/21 00:17:29;;;;;;;20.37;10.43;;;;;;;7.19;84.43;96392.47;4927156;28;20494;-72
2021/04/21 00:19:57;;;;;;;18.63;10.47;;;;;;;7.10;84.65;96386.94;4923083;28;20570;-72
2021/04/21 00:22:28;;;;;;;21.83;11.13;;;;;;;7.17;84.84;96388.28;4925719;29;21042;-72
2021/04/21 00:24:55;;;;;;;24.90;11.70;;;;;;;7.03;85.38;96375.22;4922613;28;20584;-71
2021/04/21 00:27:25;;;;;;;22.55;10.55;;;;;;;6.97;84.63;96357.44;4920289;29;20997;-72
2021/04/21 00:29:57;;;;;;;20.17;10.65;;;;;;;7.14;84.22;96378.13;4928239;28;20223;-72
2021/04/21 00:32:26;;;;;;;19.40;10.70;;;;;;;7.12;84.50;96370.44;4946084;28;20214;-72
2021/04/21 00:34:56;;;;;;;21.02;11.68;;;;;;;6.98;84.63;96372.88;4916843;28;20953;-72
2021/04/21 00:37:27;;;;;;;18.03;11.23;;;;;;;7.00;84.96;96376.22;4921249;29;20553;-73
2021/04/21 00:39:57;;;;;;;22.15;11.15;;;;;;;6.85;85.50;96373.59;4923719;28;21026;-72
2021/04/21 00:42:29;;;;;;;19.88;11.07;;;;;;;6.80;85.66;96368.66;4912614;29;20213;-72
2021/04/21 00:45:04;;;;;;;19.43;10.90;;;;;;;6.77;86.21;96375.75;4915926;29;20573;-72
2021/04/21 00:47:39;;;;;;;22.60;12.40;;;;;;;6.76;85.88;96374.91;4929023;29;20435;-72
2021/04/21 00:50:12;;;;;;;17.33;10.05;;;;;;;6.71;86.17;96365.72;4930372;28;20570;-72
2021/04/21 00:52:47;;;;;;;19.93;11.70;;;;;;;6.72;86.09;96364.78;4918507;29;20501;-72
2021/04/21 00:55:19;;;;;;;18.08;11.00;;;;;;;6.78;85.66;96364.47;4928160;28;20466;-71
2021/04/21 00:57:55;;;;;;;23.05;11.48;;;;;;;6.78;85.71;96364.47;4920976;29;20191;-73
2021/04/21 01:00:27;;;;;;;20.98;11.65;;;;;;;6.73;85.78;96363.88;4923539;28;20227;-73
2021/04/21 01:02:56;;;;;;;25.02;12.77;;;;;;;6.71;85.69;96361.34;4946524;28;20450;-72
2021/04/21 01:05:25;;;;;;;20.35;11.05;;;;;;;6.63;86.31;96352.34;4943859;28;20226;-72
2021/04/21 01:07:56;;;;;;;23.85;11.55;;;;;;;6.68;85.86;96355.50;4937151;28;20202;-74
2021/04/21 01:10:26;;;;;;;20.02;10.98;;;;;;;6.61;86.17;96348.97;4948011;28;20255;-73
2021/04/21 01:12:54;;;;;;;28.48;12.38;;;;;;;6.63;85.93;96349.75;4949861;28;20195;-72
2021/04/21 01:15:23;;;;;;;22.48;10.70;;;;;;;6.57;86.50;96353.47;4942311;28;20239;-73
2021/04/21 01:17:52;;;;;;;24.98;12.75;;;;;;;6.52;86.73;96344.25;4943118;28;20522;-71
2021/04/21 01:20:30;;;;;;;22.30;12.00;;;;;;;6.59;86.07;96348.22;4948604;28;20238;-72
2021/04/21 01:23:15;;;;;;;23.60;12.18;;;;;;;6.54;85.67;96345.00;4948728;28;20536;-72
2021/04/21 01:25:52;;;;;;;20.33;12.45;;;;;;;6.40;85.72;96347.47;4958084;28;20289;-73
2021/04/21 01:28:23;;;;;;;19.95;11.48;;;;;;;6.29;86.29;96344.56;4935026;28;20242;-72
2021/04/21 01:30:52;;;;;;;22.50;12.80;;;;;;;6.28;86.10;96353.25;4943598;28;20196;-73
2021/04/21 01:33:21;;;;;;;22.08;11.80;;;;;;;6.24;86.09;96351.72;4939529;28;20488;-72
2021/04/21 01:35:54;;;;;;;25.35;11.35;;;;;;;6.15;86.29;96353.00;4940057;28;20191;-72
2021/04/21 01:38:23;;;;;;;19.33;10.65;;;;;;;6.11;86.88;96348.06;4920680;28;20744;-72
2021/04/21 01:40:52;;;;;;;21.02;11.07;;;;;;;6.14;86.62;96353.94;4937739;28;20866;-73
2021/04/21 01:43:22;;;;;;;20.00;10.85;;;;;;;6.19;86.35;96354.53;4934937;28;20740;-71
2021/04/21 01:45:56;;;;;;;24.05;10.77;;;;;;;6.09;86.53;96339.53;4945138;28;20812;-73
2021/04/21 01:48:26;;;;;;;20.50;11.25;;;;;;;6.19;86.37;96361.44;4945840;28;20596;-73
2021/04/21 01:50:54;;;;;;;17.40;9.57;;;;;;;6.12;86.51;96349.75;4946679;28;20649;-72
2021/04/21 01:53:29;;;;;;;20.90;10.77;;;;;;;6.06;86.87;96352.63;4944487;28;20183;-73
2021/04/21 01:56:02;;;;;;;19.55;11.27;;;;;;;6.05;86.75;96346.59;4924385;28;20698;-72
2021/04/21 01:58:58;;;;;;;21.23;11.55;;;;;;;5.94;87.21;96353.19;4939385;28;20772;-72
2021/04/21 02:01:41;;;;;;;19.90;11.25;;;;;;;6.00;86.97;96342.56;4921177;28;20223;-72
2021/04/21 02:04:18;;;;;;;22.75;11.77;;;;;;;5.99;87.45;96348.66;4920030;28;20675;-71
2021/04/21 02:06:55;;;;;;;23.25;11.25;;;;;;;5.99;87.24;96349.50;4917570;29;20191;-70
2021/04/21 02:09:46;;;;;;;19.77;11.25;;;;;;;6.00;87.44;96355.50;4919458;28;20773;-72
2021/04/21 02:12:33;;;;;;;25.33;12.63;;;;;;;6.06;87.69;96353.44;4929502;29;20192;-72
2021/04/21 02:15:06;;;;;;;26.67;12.35;;;;;;;5.92;86.86;96345.53;4913982;29;20600;-71
2021/04/21 02:17:39;;;;;;;22.02;11.93;;;;;;;5.95;86.73;96353.13;4928074;29;20200;-71
2021/04/21 02:20:15;;;;;;;16.42;10.35;;;;;;;5.86;86.55;96351.00;4919286;29;20305;-71
2021/04/21 02:22:50;;;;;;;29.58;14.15;;;;;;;5.81;86.93;96352.94;4920005;29;20206;-71
2021/04/21 02:25:23;;;;;;;22.42;12.07;;;;;;;5.87;87.20;96363.00;4929034;28;20223;-72
2021/04/21 02:27:59;;;;;;;21.02;12.50;;;;;;;5.77;87.82;96353.13;4919278;29;20184;-72
2021/04/21 02:30:38;;;;;;;25.58;12.23;;;;;;;5.86;87.40;96365.63;4918311;29;20215;-72
2021/04/21 02:33:12;;;;;;;19.42;10.80;;;;;;;5.72;86.25;96348.19;4924372;28;20646;-72
2021/04/21 02:35:44;;;;;;;23.27;11.55;;;;;;;5.67;86.04;96357.88;4939523;28;20788;-71
2021/04/21 02:38:28;;;;;;;25.38;12.93;;;;;;;5.48;87.32;96358.81;4925562;28;20589;-71
2021/04/21 02:41:07;;;;;;;24.27;11.13;;;;;;;5.51;87.63;96359.50;4925124;29;20222;-71
2021/04/21 02:43:56;;;;;;;18.83;11.23;;;;;;;5.44;87.24;96357.28;4929002;28;20643;-71
2021/04/21 02:46:31;;;;;;;21.73;11.15;;;;;;;5.44;87.41;96358.13;4922118;29;20188;-72
2021/04/21 02:49:15;;;;;;;24.77;11.18;;;;;;;5.40;86.85;96356.56;4922742;28;20745;-71
2021/04/21 02:51:50;;;;;;;20.20;10.98;;;;;;;5.52;86.90;96358.59;4923548;29;20647;-72
2021/04/21 02:54:21;;;;;;;22.60;12.05;;;;;;;5.60;86.63;96355.69;4925279;28;20589;-71
2021/04/21 02:56:56;;;;;;;18.27;10.82;;;;;;;5.58;86.30;96352.31;4926046;28;20592;-71
2021/04/21 02:59:32;;;;;;;22.13;11.48;;;;;;;5.49;87.10;96353.59;4928717;28;20215;-72
2021/04/21 03:02:06;;;;;;;20.08;10.80;;;;;;;5.43;86.87;96355.59;4924828;29;20583;-72
2021/04/21 03:04:39;;;;;;;21.08;11.27;;;;;;;5.47;86.76;96357.16;4923682;28;20227;-73
2021/04/21 03:07:14;;;;;;;22.52;12.25;;;;;;;5.41;87.13;96352.25;4948726;28;20200;-72
2021/04/21 03:09:47;;;;;;;20.52;11.07;;;;;;;5.34;87.29;96356.03;4919320;28;20226;-72
2021/04/21 03:12:19;;;;;;;18.92;10.10;;;;;;;5.35;86.81;96355.97;4929872;29;20636;-73
2021/04/21 03:14:50;;;;;;;21.77;11.05;;;;;;;5.30;86.80;96354.50;4921097;28;20238;-73
2021/04/21 03:17:19;;;;;;;23.92;10.60;;;;;;;5.27;86.32;96339.16;4925502;29;20829;-72
2021/04/21 03:19:49;;;;;;;21.50;11.38;;;;;;;5.33;86.47;96350.03;4922599;28;20223;-71
2021/04/21 03:22:20;;;;;;;17.60;10.20;;;;;;;5.26;85.58;96352.97;4927734;29;20230;-73
2021/04/21 03:24:49;;;;;;;20.10;10.55;;;;;;;5.21;86.21;96345.44;4925601;28;20687;-72
2021/04/21 03:27:21;;;;;;;21.48;11.63;;;;;;;5.14;86.86;96350.91;4924697;29;20266;-73
2021/04/21 03:29:50;;;;;;;20.73;12.50;;;;;;;5.16;87.19;96349.94;4920736;28;20287;-72
2021/04/21 03:32:22;;;;;;;20.63;10.90;;;;;;;5.00;87.29;96338.66;4919402;29;20219;-72
2021/04/21 03:34:50;;;;;;;25.10;11.43;;;;;;;5.10;87.48;96341.66;4922678;28;20263;-72
2021/04/21 03:37:40;;;;;;;20.40;11.60;;;;;;;5.15;87.33;96345.69;4917937;29;20196;-72
2021/04/21 03:40:09;;;;;;;22.00;11.70;;;;;;;5.16;87.13;96336.22;4921878;28;20219;-73
2021/04/21 03:42:38;;;;;;;19.23;10.98;;;;;;;5.13;87.51;96331.19;4918162;29;20215;-73
2021/04/21 03:45:06;;;;;;;20.42;11.23;;;;;;;5.14;87.84;96332.88;4917576;28;20779;-71
2021/04/21 03:47:34;;;;;;;20.75;11.23;;;;;;;5.13;87.50;96331.19;4925867;29;20227;-72
2021/04/21 03:50:04;;;;;;;20.95;11.32;;;;;;;5.13;87.39;96332.03;4924224;28;20224;-73
2021/04/21 03:52:34;;;;;;;19.83;10.60;;;;;;;5.06;87.30;96334.94;4924434;29;20791;-72
2021/04/21 03:55:02;;;;;;;22.92;12.00;;;;;;;5.06;87.93;96328.06;4931982;28;20852;-72
2021/04/21 03:57:32;;;;;;;19.02;11.20;;;;;;;5.06;87.25;96329.78;4930582;29;20222;-71
2021/04/21 04:00:03;;;;;;;20.38;10.93;;;;;;;5.03;86.70;96329.94;4917803;28;20219;-72
2021/04/21 04:02:32;;;;;;;23.00;12.23;;;;;;;5.02;87.21;96328.28;4901040;29;20856;-71
2021/04/21 04:05:03;;;;;;;22.98;10.77;;;;;;;5.01;87.67;96329.19;4924349;28;20227;-73
2021/04/21 04:07:35;;;;;;;22.60;12.35;;;;;;;5.01;87.67;96321.44;4924768;28;20206;-72
2021/04/21 04:10:04;;;;;;;30.25;12.05;;;;;;;4.93;87.52;96328.66;4918786;28;20235;-72
2021/04/21 04:12:35;;;;;;;26.77;12.00;;;;;;;4.91;88.01;96325.31;4930294;29;20188;-71
2021/04/21 04:15:03;;;;;;;19.20;11.65;;;;;;;4.89;88.24;96337.44;4938903;28;20321;-71
2021/04/21 04:17:32;;;;;;;26.95;11.20;;;;;;;4.85;88.13;96330.75;4920304;29;20996;-71
2021/04/21 04:20:01;;;;;;;35.40;17.95;;;;;;;4.84;88.65;96329.06;4921558;28;20551;-72
2021/04/21 04:22:32;;;;;;;32.85;14.88;;;;;;;4.82;89.04;96330.91;4917914;29;20706;-71
2021/04/21 04:25:01;;;;;;;23.65;12.25;;;;;;;4.82;88.73;96333.47;4918743;28;20721;-71
2021/04/21 04:27:30;;;;;;;23.08;11.60;;;;;;;4.85;88.90;96330.75;4926131;29;20592;-71
2021/04/21 04:29:59;;;;;;;20.23;11.50;;;;;;;4.90;88.67;96331.38;4925318;28;20282;-71
2021/04/21 04:32:28;;;;;;;20.92;12.13;;;;;;;4.99;88.22;96334.41;4920266;29;20220;-71
2021/04/21 04:34:57;;;;;;;19.38;11.93;;;;;;;5.05;88.31;96338.44;4919927;28;20238;-73
2021/04/21 04:37:26;;;;;;;22.73;13.30;;;;;;;5.09;87.55;96332.25;4918685;29;20203;-72
2021/04/21 04:39:54;;;;;;;22.10;12.43;;;;;;;5.07;88.10;96334.03;4918542;28;20434;-73
2021/04/21 04:42:22;;;;;;;25.88;12.60;;;;;;;5.04;88.38;96341.94;4921233;29;20211;-71
2021/04/21 04:44:51;;;;;;;17.58;10.55;;;;;;;4.96;87.22;96339.69;4916383;28;20231;-73
2021/04/21 04:47:23;;;;;;;23.00;11.00;;;;;;;4.90;85.91;96344.28;4917148;29;20196;-71
2021/04/21 04:49:55;;;;;;;20.80;11.00;;;;;;;4.84;85.29;96339.38;4920048;28;20250;-71
2021/04/21 04:52:26;;;;;;;19.52;10.95;;;;;;;4.82;85.27;96348.94;4918336;29;20246;-72
2021/04/21 04:54:54;;;;;;;17.13;10.45;;;;;;;4.90;86.00;96354.59;4915912;28;20619;-71
2021/04/21 04:57:21;;;;;;;19.42;10.65;;;;;;;4.95;86.22;96350.91;4920626;29;20639;-72
2021/04/21 04:59:49;;;;;;;19.88;12.65;;;;;;;4.87;86.90;96354.75;4915817;28;20391;-72
2021/04/21 05:02:17;;;;;;;21.88;11.57;;;;;;;4.90;86.89;96352.88;4939907;28;20231;-73
2021/04/21 05:04:56;;;;;;;25.88;11.95;;;;;;;4.92;87.23;96358.78;4939802;28;20231;-72
2021/04/21 05:07:29;;;;;;;19.15;10.73;;;;;;;4.86;87.97;96364.19;4923343;28;20183;-73
2021/04/21 05:10:01;;;;;;;21.55;11.95;;;;;;;5.04;87.55;96362.56;4939810;28;20598;-71
2021/04/21 05:12:36;;;;;;;22.13;11.45;;;;;;;5.09;88.05;96356.28;4941570;28;20206;-71
2021/04/21 05:15:04;;;;;;;22.90;11.30;;;;;;;5.24;88.29;96362.53;4921248;28;20238;-73
2021/04/21 05:18:09;;;;;;;20.77;11.18;;;;;;;5.29;88.53;96363.13;4938898;28;20694;-72
2021/04/21 05:21:16;;;;;;;24.13;11.45;;;;;;;5.37;88.83;96361.03;4945437;28;20305;-74
2021/04/21 05:24:28;;;;;;;27.38;12.73;;;;;;;5.51;87.88;96358.66;4947092;28;20241;-73
2021/04/21 05:27:25;;;;;;;18.95;10.82;;;;;;;5.57;85.92;96374.72;4911492;28;20217;-72
2021/04/21 05:30:34;;;;;;;19.25;10.95;;;;;;;5.63;84.92;96368.44;4941772;28;20227;-70
2021/04/21 05:33:47;;;;;;;20.98;10.57;;;;;;;5.66;83.82;96370.84;4899729;28;20253;-72
2021/04/21 05:37:13;;;;;;;42.33;20.25;;;;;;;5.37;84.10;96384.25;4948988;28;20222;-72
2021/04/21 05:40:24;;;;;;;29.95;11.85;;;;;;;5.38;83.93;96373.88;4850437;29;20705;-73
2021/04/21 05:43:43;;;;;;;24.83;12.63;;;;;;;5.41;83.93;96368.59;4949205;28;20631;-72
2021/04/21 05:46:53;;;;;;;24.00;11.63;;;;;;;5.74;83.75;96379.13;4948774;28;20274;-70
2021/04/21 05:49:55;;;;;;;22.17;12.15;;;;;;;5.86;83.93;96386.28;4941196;28;20215;-70
2021/04/21 05:52:57;;;;;;;25.23;13.05;;;;;;;6.23;82.90;96381.03;4934615;28;20195;-71
2021/04/21 05:56:07;;;;;;;21.42;12.65;;;;;;;6.57;82.28;96376.72;4943200;28;20573;-70
2021/04/21 05:59:01;;;;;;;19.17;10.80;;;;;;;6.85;81.08;96381.38;4933316;28;20289;-72
2021/04/21 06:01:30;;;;;;;19.63;10.43;;;;;;;7.10;79.88;96381.75;4943197;28;20223;-71
2021/04/21 06:03:58;;;;;;;22.80;11.80;;;;;;;7.20;79.62;96385.56;4947107;28;20663;-71
2021/04/21 06:06:26;;;;;;;19.17;10.75;;;;;;;7.16;80.39;96384.88;4948320;28;20191;-71
2021/04/21 06:08:54;;;;;;;20.67;10.57;;;;;;;7.32;80.20;96380.59;4945827;28;20223;-71
2021/04/21 06:11:24;;;;;;;24.52;12.90;;;;;;;7.35;79.91;96385.59;4942605;28;20262;-71
2021/04/21 06:13:53;;;;;;;19.48;12.85;;;;;;;7.65;79.27;96393.47;4934672;28;20658;-72
2021/04/21 06:16:21;;;;;;;22.48;12.90;;;;;;;7.71;78.40;96393.97;4946147;28;20333;-71
2021/04/21 06:18:56;;;;;;;22.20;12.90;;;;;;;7.82;78.96;96396.00;4920645;28;20243;-70
2021/04/21 06:21:25;;;;;;;27.88;15.57;;;;;;;7.90;78.56;96386.03;4934052;29;20191;-71
2021/04/21 06:23:53;;;;;;;26.00;16.37;;;;;;;8.16;78.28;96396.63;4923119;28;20658;-72
2021/04/21 06:26:23;;;;;;;23.70;16.67;;;;;;;8.07;78.11;96409.25;4937748;28;20442;-72
2021/04/21 06:29:08;;;;;;;26.43;15.33;;;;;;;8.15;78.31;96407.94;4934903;28;21020;-73
2021/04/21 06:31:38;;;;;;;40.80;13.53;;;;;;;8.22;78.32;96403.25;4923662;28;20443;-73
2021/04/21 06:34:06;;;;;;;55.25;28.60;;;;;;;8.37;78.81;96408.44;4925993;29;20943;-74
2021/04/21 06:36:38;;;;;;;63.93;29.40;;;;;;;8.51;78.37;96406.75;4901946;29;20597;-72
2021/04/21 06:39:06;;;;;;;42.77;23.30;;;;;;;8.57;78.15;96411.56;4933373;28;20467;-70
2021/04/21 06:41:34;;;;;;;36.20;19.13;;;;;;;8.69;77.86;96400.50;4953089;28;20755;-70
2021/04/21 06:44:02;;;;;;;33.33;17.07;;;;;;;8.66;77.90;96405.88;4945966;28;20501;-71
2021/04/21 06:46:30;;;;;;;30.57;16.23;;;;;;;8.76;77.50;96401.81;4950884;28;20450;-72
2021/04/21 06:48:59;;;;;;;30.20;16.17;;;;;;;8.87;77.54;96407.19;4939225;28;20469;-72
2021/04/21 06:51:27;;;;;;;30.23;15.67;;;;;;;9.08;76.89;96405.13;4943157;28;20444;-72
2021/04/21 06:53:55;;;;;;;34.13;18.20;;;;;;;9.36;76.43;96390.38;4948144;28;20461;-71
2021/04/21 06:56:28;;;;;;;44.63;19.57;;;;;;;9.79;75.04;96404.19;4945452;28;20940;-72
2021/04/21 06:58:56;;;;;;;41.70;18.37;;;;;;;9.91;74.64;96406.03;4940565;28;20589;-72
2021/04/21 07:01:28;;;;;;;49.60;21.13;;;;;;;10.11;74.34;96397.84;4946812;28;20466;-72
2021/04/21 07:04:13;;;;;;;28.37;14.90;;;;;;;10.56;73.44;96398.34;4941756;28;20481;-72
2021/04/21 07:06:46;;;;;;;46.10;19.20;;;;;;;11.00;72.56;96401.47;4938176;28;20807;-73
2021/04/21 07:09:14;;;;;;;39.33;19.63;;;;;;;11.33;71.13;96399.16;4940918;28;20525;-71
2021/04/21 07:11:41;;;;;;;42.33;18.20;;;;;;;11.70;70.79;96402.75;4946612;28;20443;-73
2021/04/21 07:14:11;;;;;;;28.50;15.93;;;;;;;12.22;69.47;96401.56;4947639;28;20459;-72
2021/04/21 07:16:41;;;;;;;43.67;18.07;;;;;;;12.69;68.11;96401.56;4949035;28;20545;-72
2021/04/21 07:19:11;;;;;;;34.30;16.10;;;;;;;13.35;66.36;96399.19;4948709;28;20845;-73
2021/04/21 07:21:40;;;;;;;31.00;16.00;;;;;;;13.85;64.51;96396.94;4946309;28;20441;-70
2021/04/21 07:24:16;;;;;;;30.50;15.90;;;;;;;14.47;62.30;96398.09;4938549;28;20790;-70
2021/04/21 07:26:49;;;;;;;37.67;16.03;;;;;;;15.02;61.07;96397.03;4939083;28;20439;-72
2021/04/21 07:29:20;;;;;;;26.30;16.37;;;;;;;15.22;60.24;96397.03;4940922;28;20546;-71
2021/04/21 07:31:47;;;;;;;28.13;15.80;;;;;;;15.72;59.31;96400.69;4944018;28;20945;-71
2021/04/21 07:34:32;;;;;;;31.20;17.10;;;;;;;15.87;58.28;96399.38;4949458;28;20620;-71
2021/04/21 07:37:00;;;;;;;30.00;16.07;;;;;;;15.95;58.67;96399.53;4946643;28;20457;-74
2021/04/21 07:39:32;;;;;;;27.63;14.63;;;;;;;16.07;58.62;96395.84;4939356;28;20827;-71
2021/04/21 07:41:59;;;;;;;28.73;16.40;;;;;;;16.23;58.56;96390.94;4949096;28;20882;-71
2021/04/21 07:44:29;;;;;;;30.40;15.53;;;;;;;16.60;57.76;96394.63;4946933;28;20485;-71
2021/04/21 07:47:10;;;;;;;33.90;16.00;;;;;;;16.29;57.60;96390.41;4945009;28;20450;-70
2021/04/21 07:49:39;;;;;;;33.27;15.90;;;;;;;16.55;57.87;96402.09;4939138;28;21407;-71
2021/04/21 07:52:06;;;;;;;28.87;15.60;;;;;;;16.53;58.08;96388.25;4950894;28;21023;-71
2021/04/21 07:54:34;;;;;;;32.43;15.90;;;;;;;16.72;56.64;96401.44;4944629;28;20466;-70
2021/04/21 07:57:10;;;;;;;43.23;17.27;;;;;;;16.42;57.62;96398.91;4951289;28;20453;-70
2021/04/21 07:59:42;;;;;;;27.77;15.20;;;;;;;16.41;56.31;96402.50;4936128;28;20524;-70
2021/04/21 08:02:16;;;;;;;28.73;14.77;;;;;;;16.07;56.32;96403.72;4936908;28;21213;-70
2021/04/21 08:05:02;;;;;;;25.57;13.50;;;;;;;15.92;56.47;96403.25;4948828;28;20719;-71
2021/04/21 08:07:31;;;;;;;25.77;14.20;;;;;;;15.71;56.77;96407.75;4945197;28;20927;-72
2021/04/21 08:09:59;;;;;;;23.73;14.80;;;;;;;15.58;54.96;96407.09;4949604;28;20785;-71
2021/04/21 08:12:29;;;;;;;22.80;14.07;;;;;;;15.74;57.52;96402.22;4941907;28;20437;-72
2021/04/21 08:15:02;;;;;;;27.97;16.10;;;;;;;16.03;57.25;96404.94;4944242;28;21005;-71
2021/04/21 08:17:29;;;;;;;18.60;11.80;;;;;;;16.04;53.08;96404.00;4946294;28;20437;-72
2021/04/21 08:20:03;;;;;;;23.53;12.27;;;;;;;15.88;53.94;96387.91;4938130;28;20548;-73
2021/04/21 08:22:30;;;;;;;18.90;11.37;;;;;;;16.10;53.19;96404.31;4939141;28;20466;-71
2021/04/21 08:24:58;;;;;;;20.23;11.27;;;;;;;16.43;53.04;96392.69;4942502;28;21004;-71
2021/04/21 08:27:26;;;;;;;25.80;12.33;;;;;;;17.01;52.48;96397.84;4942442;28;20901;-71
2021/04/21 08:29:57;;;;;;;19.73;9.97;;;;;;;17.33;51.19;96393.94;4947297;28;20477;-72
2021/04/21 08:32:27;;;;;;;19.77;10.87;;;;;;;17.91;50.46;96394.66;4939563;28;20458;-72
2021/04/21 08:34:55;;;;;;;19.20;11.23;;;;;;;18.07;46.99;96400.13;4938328;28;21001;-72
2021/04/21 08:37:22;;;;;;;18.50;10.83;;;;;;;17.59;48.18;96395.03;4938054;28;20925;-72
2021/04/21 08:39:49;;;;;;;13.27;8.93;;;;;;;17.55;45.65;96388.38;4936940;28;20988;-71
2021/04/21 08:42:15;;;;;;;18.97;10.40;;;;;;;17.60;47.84;96395.84;4937320;28;20438;-72
2021/04/21 08:44:43;;;;;;;17.50;9.50;;;;;;;17.91;47.91;96384.94;4940391;28;20905;-71
2021/04/21 08:47:14;;;;;;;18.93;9.73;;;;;;;18.67;48.62;96399.56;4941557;28;20981;-72
2021/04/21 08:49:46;;;;;;;16.70;10.07;;;;;;;19.16;47.58;96396.41;4937638;28;20473;-71
2021/04/21 08:52:17;;;;;;;19.43;9.80;;;;;;;19.57;46.32;96395.75;4942138;28;20434;-71
2021/04/21 08:54:47;;;;;;;22.87;11.03;;;;;;;19.57;44.04;96396.59;4940301;28;21058;-71
2021/04/21 08:57:14;;;;;;;18.77;10.30;;;;;;;18.61;44.54;96394.88;4940974;28;20956;-72
2021/04/21 08:59:44;;;;;;;22.30;11.50;;;;;;;17.94;46.86;96397.84;4942295;28;20456;-70
2021/04/21 09:02:12;;;;;;;20.07;11.20;;;;;;;17.95;46.26;96398.66;4940504;28;20526;-71
2021/04/21 09:04:40;;;;;;;22.23;10.80;;;;;;;18.33;46.09;96391.44;4944240;28;20486;-70
2021/04/21 09:07:12;;;;;;;28.97;11.30;;;;;;;18.77;44.16;96390.59;4944862;28;21101;-71
2021/04/21 09:09:39;;;;;;;24.00;11.20;;;;;;;18.81;45.20;96397.25;4943078;28;21016;-71
2021/04/21 09:12:08;;;;;;;17.77;10.10;;;;;;;19.23;44.26;96398.31;4946497;28;20786;-71
2021/04/21 09:14:35;;;;;;;16.23;9.90;;;;;;;19.35;44.20;96397.09;4939893;28;20494;-71
2021/04/21 09:17:03;;;;;;;19.67;11.80;;;;;;;19.47;47.02;96392.41;4945553;28;20758;-71
2021/04/21 09:19:30;;;;;;;17.13;10.90;;;;;;;20.00;45.24;96388.63;4941121;28;20834;-71
2021/04/21 09:22:07;;;;;;;69.70;39.80;;;;;;;20.37;45.42;96394.44;4944401;28;20921;-70
2021/04/21 09:24:37;;;;;;;20.23;13.13;;;;;;;20.63;46.29;96397.00;4941468;28;20705;-73
2021/04/21 09:27:30;;;;;;;16.43;11.03;;;;;;;21.07;45.66;96393.16;4934842;28;20512;-71
2021/04/21 09:30:12;;;;;;;19.77;11.50;;;;;;;21.53;45.26;96388.03;4941973;28;20510;-71
2021/04/21 09:32:50;;;;;;;33.67;13.87;;;;;;;21.55;43.10;96386.03;4946718;28;20446;-71
2021/04/21 09:35:21;;;;;;;19.57;12.77;;;;;;;21.47;42.78;96382.56;4941689;28;20809;-72
2021/04/21 09:37:48;;;;;;;19.47;12.13;;;;;;;21.75;43.42;96384.72;4944307;28;20473;-71
2021/04/21 09:40:32;;;;;;;22.37;12.93;;;;;;;21.95;43.85;96379.88;4935748;28;20482;-70
2021/04/21 09:42:59;;;;;;;22.13;13.40;;;;;;;22.39;42.48;96384.53;4947740;28;20446;-71
2021/04/21 09:45:37;;;;;;;19.90;12.90;;;;;;;22.43;41.94;96377.91;4936941;28;20474;-71
2021/04/21 09:48:09;;;;;;;18.73;12.67;;;;;;;22.29;41.93;96375.94;4939597;28;21320;-71
2021/04/21 09:50:38;;;;;;;22.07;14.00;;;;;;;22.45;43.13;96375.09;4940541;28;21009;-71
2021/04/21 09:53:19;;;;;;;22.70;14.17;;;;;;;22.60;42.33;96363.56;4940602;28;20929;-70
2021/04/21 09:56:03;;;;;;;22.50;14.33;;;;;;;22.02;43.28;96370.25;4940542;28;20438;-71
2021/04/21 09:58:33;;;;;;;21.67;14.10;;;;;;;21.27;43.80;96358.25;4939020;28;20462;-74
2021/04/21 10:01:00;;;;;;;21.50;12.50;;;;;;;21.61;43.24;96374.78;4945843;28;20465;-73
2021/04/21 10:03:27;;;;;;;21.93;12.57;;;;;;;21.91;42.51;96374.09;4940686;28;20860;-72
2021/04/21 10:05:54;;;;;;;20.70;13.60;;;;;;;22.01;42.06;96371.25;4915211;28;20447;-74
2021/04/21 10:08:23;;;;;;;23.60;13.67;;;;;;;21.40;43.00;96361.22;4939184;28;21051;-74
2021/04/21 10:11:00;;;;;;;23.03;14.70;;;;;;;21.26;44.29;96369.84;4941066;28;20764;-72
2021/04/21 10:13:45;;;;;;;23.87;14.33;;;;;;;21.04;44.24;96370.47;4941518;28;20945;-73
2021/04/21 10:16:14;;;;;;;19.27;12.57;;;;;;;21.29;44.03;96369.47;4941907;28;20816;-73
2021/04/21 10:18:44;;;;;;;18.80;12.60;;;;;;;21.81;43.77;96368.16;4942160;28;20826;-73
2021/04/21 10:21:13;;;;;;;23.83;13.13;;;;;;;21.99;43.48;96368.75;4938469;28;20968;-74
2021/04/21 10:23:43;;;;;;;23.07;15.00;;;;;;;21.59;41.51;96360.88;4942774;28;20993;-72
2021/04/21 10:26:13;;;;;;;34.70;20.70;;;;;;;21.19;43.49;96363.53;4948174;28;20427;-73
2021/04/21 10:28:42;;;;;;;27.87;16.67;;;;;;;20.89;42.29;96364.19;4941441;28;20992;-73
2021/04/21 10:31:13;;;;;;;18.70;12.10;;;;;;;19.73;43.71;96378.22;4944478;28;20438;-73
2021/04/21 10:33:42;;;;;;;23.03;12.70;;;;;;;19.68;43.69;96374.41;4939122;28;21004;-74
2021/04/21 10:36:12;;;;;;;15.40;10.57;;;;;;;19.80;44.49;96371.31;4940946;28;20793;-73
2021/04/21 10:38:43;;;;;;;22.03;12.20;;;;;;;19.89;44.46;96369.56;4942774;28;20957;-72
2021/04/21 10:41:22;;;;;;;23.70;12.93;;;;;;;19.76;44.39;96366.50;4943552;28;20506;-72
2021/04/21 10:43:50;;;;;;;16.90;10.77;;;;;;;19.71;44.84;96372.28;4939463;28;20474;-73
2021/04/21 10:46:18;;;;;;;17.57;11.40;;;;;;;19.56;43.43;96368.53;4940259;28;20470;-73
2021/04/21 10:48:46;;;;;;;16.20;11.43;;;;;;;19.59;44.01;96368.22;4942440;28;20473;-73
2021/04/21 10:51:33;;;;;;;20.40;10.33;;;;;;;19.56;43.94;96363.25;4944256;28;20790;-72
2021/04/21 10:54:03;;;;;;;16.30;9.67;;;;;;;19.63;43.73;96369.59;4944020;28;20961;-74
2021/04/21 10:56:31;;;;;;;17.43;9.97;;;;;;;19.69;43.80;96368.13;4926492;28;20938;-72
2021/04/21 10:59:01;;;;;;;18.60;10.73;;;;;;;19.65;43.96;96362.31;4942559;28;21111;-72
2021/04/21 11:01:29;;;;;;;20.43;11.50;;;;;;;19.63;44.19;96359.03;4936310;28;20978;-73
2021/04/21 11:03:57;;;;;;;18.37;11.03;;;;;;;19.56;44.23;96360.63;4944756;28;20950;-73
2021/04/21 11:06:46;;;;;;;24.17;11.50;;;;;;;19.55;44.79;96358.97;4939295;28;20470;-74
2021/04/21 11:09:16;;;;;;;16.10;11.37;;;;;;;19.52;44.78;96361.91;4942165;28;20471;-72
2021/04/21 11:11:47;;;;;;;19.60;11.30;;;;;;;19.55;44.15;96355.50;4937932;28;20427;-72
2021/04/21 11:14:16;;;;;;;16.80;10.37;;;;;;;19.56;44.33;96355.34;4936502;28;20960;-73
2021/04/21 11:16:46;;;;;;;21.93;11.10;;;;;;;19.64;44.15;96355.38;4941763;28;20486;-73
2021/04/21 11:19:28;;;;;;;15.00;10.23;;;;;;;19.67;43.87;96356.91;4946119;28;20473;-73
2021/04/21 11:22:21;;;;;;;16.10;10.60;;;;;;;19.59;44.07;96360.28;4939254;28;20460;-73
2021/04/21 11:25:27;;;;;;;19.53;11.67;;;;;;;19.42;41.75;96352.41;4943378;28;21000;-73
2021/04/21 11:27:55;;;;;;;17.37;10.60;;;;;;;19.21;41.83;96349.28;4944083;28;20435;-73
2021/04/21 11:30:58;;;;;;;16.67;10.53;;;;;;;19.05;42.80;96349.97;4944976;28;20965;-73
2021/04/21 11:33:56;;;;;;;17.00;10.27;;;;;;;19.25;42.17;96348.84;4935154;28;20465;-74
2021/04/21 11:36:57;;;;;;;53.40;33.50;;;;;;;19.43;42.08;96352.28;4939190;28;20446;-72
2021/04/21 11:39:50;;;;;;;26.97;17.57;;;;;;;19.32;41.60;96349.88;4946946;28;20533;-73
2021/04/21 11:42:20;;;;;;;15.53;10.50;;;;;;;18.99;41.37;96342.66;4944800;28;20457;-73
2021/04/21 11:45:03;;;;;;;15.83;10.00;;;;;;;19.35;42.07;96343.47;4938687;28;20977;-73
2021/04/21 11:47:37;;;;;;;18.33;10.97;;;;;;;19.48;40.79;96342.09;4939589;28;20454;-72
2021/04/21 11:50:19;;;;;;;15.50;9.40;;;;;;;20.01;40.92;96333.94;4947111;28;20497;-71
2021/04/21 11:52:50;;;;;;;14.87;10.27;;;;;;;20.34;39.58;96339.22;4938357;28;20968;-74